Time;durP1;ratioP1;P1;durP2;ratioP2;P2;SDS_P1;SDS_P2;PMS_P1;PMS_P2;Temp;Humidity;BMP_temperature;BMP_pressure;BME280_temperature;BME280_humidity;BME280_pressure;Samples;Min_cycle;Max_cycle;Signal;HPM_P1;HPM_P2
2021/11/11 00:01:15;;;;;;;54.60;26.93;;;9.00;99.90;;;;;;5063618;28;20186;-60
2021/11/11 00:03:42;;;;;;;59.87;28.60;;;9.00;99.90;;;;;;5053412;28;20211;-60
2021/11/11 00:06:10;;;;;;;57.87;27.53;;;9.00;99.90;;;;;;5062010;28;20202;-60
2021/11/11 00:08:36;;;;;;;48.43;26.70;;;9.00;99.90;;;;;;5064918;28;20218;-60
2021/11/11 00:11:04;;;;;;;58.43;27.50;;;9.10;99.90;;;;;;5061095;28;20406;-60
2021/11/11 00:13:31;;;;;;;65.30;28.23;;;9.10;99.90;;;;;;5048194;28;20202;-60
2021/11/11 00:15:57;;;;;;;58.17;27.33;;;9.00;99.90;;;;;;5064532;28;20226;-60
2021/11/11 00:18:24;;;;;;;59.23;27.23;;;9.10;99.90;;;;;;5051424;28;20195;-60
2021/11/11 00:20:51;;;;;;;52.00;26.47;;;9.00;99.90;;;;;;5060579;28;20203;-60
2021/11/11 00:23:19;;;;;;;57.57;26.83;;;9.00;99.90;;;;;;5062261;28;20203;-59
2021/11/11 00:25:46;;;;;;;52.37;26.93;;;9.10;99.90;;;;;;5062735;28;20222;-60
2021/11/11 00:28:12;;;;;;;52.07;25.40;;;9.10;99.90;;;;;;5063737;28;20202;-60
2021/11/11 00:30:39;;;;;;;57.00;28.40;;;9.10;99.90;;;;;;5056755;28;20822;-60
2021/11/11 00:33:05;;;;;;;55.63;28.07;;;9.00;99.90;;;;;;5064122;28;20203;-60
2021/11/11 00:35:33;;;;;;;58.23;28.43;;;9.00;99.90;;;;;;5047393;28;20894;-60
2021/11/11 00:38:01;;;;;;;57.13;28.07;;;9.10;99.90;;;;;;5064499;28;20199;-60
2021/11/11 00:40:31;;;;;;;61.00;27.10;;;9.00;99.90;;;;;;5059034;28;20249;-60
2021/11/11 00:42:58;;;;;;;57.87;27.00;;;9.00;99.90;;;;;;5062647;28;20226;-59
2021/11/11 00:45:25;;;;;;;66.00;29.90;;;9.10;99.90;;;;;;5055915;28;20218;-60
2021/11/11 00:47:51;;;;;;;61.93;28.37;;;9.10;99.90;;;;;;5062116;28;20213;-60
2021/11/11 00:50:22;;;;;;;63.30;30.07;;;9.00;99.90;;;;;;5049363;28;20716;-60
2021/11/11 00:52:49;;;;;;;71.47;29.27;;;9.10;99.90;;;;;;5062439;28;20199;-60
2021/11/11 00:55:16;;;;;;;66.83;29.17;;;9.10;99.90;;;;;;5061084;28;20226;-60
2021/11/11 00:57:53;;;;;;;61.30;28.70;;;9.00;99.90;;;;;;5062056;28;20209;-60
2021/11/11 01:00:22;;;;;;;65.43;28.80;;;9.00;99.90;;;;;;5056025;28;20207;-60
2021/11/11 01:02:51;;;;;;;70.00;29.43;;;9.00;99.90;;;;;;5060931;28;20194;-60
2021/11/11 01:05:19;;;;;;;65.33;29.90;;;9.00;99.90;;;;;;5054395;28;20231;-60
2021/11/11 01:07:46;;;;;;;78.13;31.60;;;9.00;99.90;;;;;;5055056;28;20924;-60
2021/11/11 01:10:16;;;;;;;65.47;29.73;;;9.00;99.90;;;;;;5063052;28;20218;-60
2021/11/11 01:12:44;;;;;;;72.80;30.63;;;9.10;99.90;;;;;;5061260;28;20190;-60
2021/11/11 01:15:15;;;;;;;70.00;30.00;;;9.00;99.90;;;;;;5058653;28;20222;-60
2021/11/11 01:17:43;;;;;;;82.43;31.50;;;9.00;99.90;;;;;;5059674;28;20192;-60
2021/11/11 01:20:11;;;;;;;67.47;29.60;;;9.10;99.90;;;;;;5063209;28;20199;-60
2021/11/11 01:22:39;;;;;;;71.27;30.47;;;9.00;99.90;;;;;;5049215;28;20226;-60
2021/11/11 01:25:09;;;;;;;68.40;29.20;;;9.10;99.90;;;;;;5062138;28;20232;-60
2021/11/11 01:27:35;;;;;;;69.90;29.97;;;9.10;99.90;;;;;;5059542;28;20902;-60
2021/11/11 01:30:06;;;;;;;79.63;31.60;;;9.00;99.90;;;;;;5062351;28;20219;-60
2021/11/11 01:32:35;;;;;;;62.80;28.27;;;9.00;99.90;;;;;;5053044;28;20806;-60
2021/11/11 01:35:04;;;;;;;73.70;30.33;;;9.00;99.90;;;;;;5061735;28;20537;-60
2021/11/11 01:37:32;;;;;;;71.40;28.03;;;9.10;99.90;;;;;;5045017;28;20195;-60
2021/11/11 01:39:58;;;;;;;78.20;30.73;;;9.00;99.90;;;;;;5061765;28;20195;-60
2021/11/11 01:42:25;;;;;;;80.53;29.03;;;9.00;99.90;;;;;;5059979;28;20647;-60
2021/11/11 01:44:55;;;;;;;71.17;31.17;;;9.00;99.90;;;;;;5061557;28;20560;-60
2021/11/11 01:47:29;;;;;;;71.33;28.50;;;9.00;99.90;;;;;;5053301;28;20210;-60
2021/11/11 01:49:57;;;;;;;69.43;29.40;;;9.00;99.90;;;;;;5061781;28;20597;-60
2021/11/11 01:52:25;;;;;;;68.83;28.67;;;9.00;99.90;;;;;;5050823;28;20199;-60
2021/11/11 01:54:54;;;;;;;69.43;30.60;;;9.00;99.90;;;;;;5060742;28;20655;-60
2021/11/11 01:57:25;;;;;;;66.73;29.00;;;9.10;99.90;;;;;;5058556;28;20281;-60
2021/11/11 01:59:56;;;;;;;68.67;29.07;;;9.00;99.90;;;;;;5061820;28;20210;-60
2021/11/11 02:02:26;;;;;;;68.23;30.10;;;9.10;99.90;;;;;;5056172;28;20214;-60
2021/11/11 02:04:52;;;;;;;64.27;27.37;;;9.00;99.90;;;;;;5060287;28;20222;-60
2021/11/11 02:07:20;;;;;;;68.97;28.60;;;9.00;99.90;;;;;;5059997;28;20213;-59
2021/11/11 02:09:55;;;;;;;61.47;27.83;;;9.00;99.90;;;;;;5048858;28;20253;-60
2021/11/11 02:12:35;;;;;;;67.37;29.37;;;9.00;99.90;;;;;;5058794;28;20210;-60
2021/11/11 02:15:06;;;;;;;71.90;31.17;;;9.00;99.90;;;;;;5061492;28;20225;-60
2021/11/11 02:17:34;;;;;;;61.27;28.83;;;9.00;99.90;;;;;;5052327;28;20902;-60
2021/11/11 02:20:10;;;;;;;62.07;28.27;;;9.00;99.90;;;;;;5061566;28;20195;-60
2021/11/11 02:23:05;;;;;;;66.77;29.13;;;9.00;99.90;;;;;;5058097;28;20570;-60
2021/11/11 02:25:55;;;;;;;70.07;29.67;;;9.00;99.90;;;;;;5034776;28;20226;-60
2021/11/11 02:28:25;;;;;;;60.87;28.33;;;9.00;99.90;;;;;;5054284;28;20249;-59
2021/11/11 02:30:55;;;;;;;56.07;27.13;;;9.00;99.90;;;;;;5059681;28;20223;-60
2021/11/11 02:33:33;;;;;;;58.17;28.97;;;9.00;99.90;;;;;;5052350;28;20290;-60
2021/11/11 02:36:01;;;;;;;60.60;29.97;;;9.00;99.90;;;;;;5061129;28;20223;-60
2021/11/11 02:38:30;;;;;;;63.83;28.73;;;9.00;99.90;;;;;;5057337;28;20190;-60
2021/11/11 02:40:57;;;;;;;57.33;27.27;;;9.00;99.90;;;;;;5048230;28;20712;-60
2021/11/11 02:43:28;;;;;;;60.80;28.10;;;9.00;99.90;;;;;;5057881;28;20226;-60
2021/11/11 02:45:55;;;;;;;67.33;29.00;;;9.00;99.90;;;;;;5061381;28;20223;-60
2021/11/11 02:48:27;;;;;;;65.13;31.33;;;9.00;99.90;;;;;;5057518;28;20210;-60
2021/11/11 02:50:57;;;;;;;57.03;28.27;;;9.00;99.90;;;;;;5056375;28;20234;-60
2021/11/11 02:53:25;;;;;;;55.10;27.57;;;9.10;99.90;;;;;;5057901;28;20206;-60
2021/11/11 02:55:53;;;;;;;54.03;27.17;;;9.00;99.90;;;;;;5048007;28;20276;-60
2021/11/11 02:58:22;;;;;;;58.63;26.43;;;9.10;99.90;;;;;;5060302;28;20282;-60
2021/11/11 03:00:53;;;;;;;58.87;26.93;;;9.10;99.90;;;;;;5060397;28;20199;-60
2021/11/11 03:03:23;;;;;;;55.73;27.47;;;9.10;99.90;;;;;;5058287;28;20207;-60
2021/11/11 03:05:49;;;;;;;61.83;27.80;;;9.10;99.90;;;;;;5055393;28;20223;-60
2021/11/11 03:08:17;;;;;;;66.27;28.37;;;9.10;99.90;;;;;;5060131;28;20697;-60
2021/11/11 03:10:50;;;;;;;66.40;26.97;;;9.10;99.90;;;;;;5063500;28;20224;-60
2021/11/11 03:13:19;;;;;;;58.27;26.53;;;9.10;99.90;;;;;;5052731;28;20241;-59
2021/11/11 03:15:56;;;;;;;60.97;27.00;;;9.10;99.90;;;;;;5064375;28;20221;-60
2021/11/11 03:18:23;;;;;;;57.07;27.43;;;9.10;99.90;;;;;;5056657;28;20202;-59
2021/11/11 03:20:51;;;;;;;63.73;27.53;;;9.10;99.90;;;;;;5060191;28;20214;-60
2021/11/11 03:23:18;;;;;;;55.93;27.23;;;9.10;99.90;;;;;;5058793;28;20282;-59
2021/11/11 03:25:45;;;;;;;54.87;25.87;;;9.10;99.90;;;;;;5059009;28;21037;-60
2021/11/11 03:28:13;;;;;;;66.37;27.13;;;9.10;99.90;;;;;;5047466;28;20214;-60
2021/11/11 03:30:43;;;;;;;70.20;27.50;;;9.10;99.90;;;;;;5063090;28;20405;-60
2021/11/11 03:33:10;;;;;;;62.00;27.33;;;9.00;99.90;;;;;;5065245;28;20194;-60
2021/11/11 03:35:42;;;;;;;63.13;28.07;;;9.10;99.90;;;;;;5061346;28;20317;-60
2021/11/11 03:38:10;;;;;;;76.50;28.90;;;9.10;99.90;;;;;;5059347;28;20260;-60
2021/11/11 03:40:41;;;;;;;72.13;28.17;;;9.10;99.90;;;;;;5061140;28;20191;-60
2021/11/11 03:43:09;;;;;;;63.67;28.17;;;9.00;99.90;;;;;;5051214;28;20199;-60
2021/11/11 03:45:45;;;;;;;58.77;25.40;;;9.00;99.90;;;;;;5061638;28;20343;-60
2021/11/11 03:48:12;;;;;;;87.63;30.70;;;9.10;99.90;;;;;;5063169;28;20210;-60
2021/11/11 03:50:40;;;;;;;68.60;28.57;;;9.10;99.90;;;;;;5060846;28;20222;-60
2021/11/11 03:53:11;;;;;;;73.57;29.53;;;9.00;99.90;;;;;;5058729;28;20233;-60
2021/11/11 03:55:37;;;;;;;73.70;27.57;;;9.10;99.90;;;;;;5061668;28;21224;-60
2021/11/11 03:58:06;;;;;;;72.40;28.57;;;9.10;99.90;;;;;;5063837;28;20202;-60
2021/11/11 04:00:36;;;;;;;77.33;29.00;;;9.00;99.90;;;;;;5048216;28;20210;-60
2021/11/11 04:03:06;;;;;;;65.70;27.77;;;9.00;99.90;;;;;;5064589;28;20211;-60
2021/11/11 04:05:34;;;;;;;69.50;28.90;;;9.00;99.90;;;;;;5059488;28;20215;-60
2021/11/11 04:08:00;;;;;;;59.53;25.57;;;9.00;99.90;;;;;;5059175;28;20206;-60
2021/11/11 04:10:28;;;;;;;62.63;27.90;;;9.10;99.90;;;;;;5059600;28;20741;-60
2021/11/11 04:13:04;;;;;;;71.90;28.20;;;9.00;99.90;;;;;;5063250;28;20206;-60
2021/11/11 04:15:33;;;;;;;63.73;27.60;;;9.10;99.90;;;;;;5044278;28;20222;-60
2021/11/11 04:18:00;;;;;;;67.10;28.37;;;9.10;99.90;;;;;;5063096;28;20566;-60
2021/11/11 04:20:28;;;;;;;77.53;28.83;;;9.00;99.90;;;;;;5060364;28;20264;-60
2021/11/11 04:22:55;;;;;;;63.60;28.20;;;9.00;99.90;;;;;;5058477;28;20260;-60
2021/11/11 04:25:28;;;;;;;68.13;27.43;;;9.10;99.90;;;;;;5060430;28;20278;-60
2021/11/11 04:28:00;;;;;;;73.40;29.10;;;9.00;99.90;;;;;;5063344;28;20214;-60
2021/11/11 04:30:28;;;;;;;78.97;30.17;;;9.00;99.90;;;;;;5046437;28;20238;-60
2021/11/11 04:32:56;;;;;;;67.83;27.83;;;9.00;99.90;;;;;;5062447;28;20286;-60
2021/11/11 04:35:24;;;;;;;77.73;28.23;;;9.00;99.90;;;;;;5061131;28;20230;-60
2021/11/11 04:38:00;;;;;;;73.90;29.50;;;9.00;99.90;;;;;;5053770;28;20214;-60
2021/11/11 04:40:46;;;;;;;71.43;28.23;;;9.00;99.90;;;;;;5059464;28;20667;-60
2021/11/11 04:49:20;;;;;;;66.10;28.23;;;9.10;99.90;;;;;;5057631;28;20194;-60
2021/11/11 04:52:04;;;;;;;65.40;26.13;;;9.10;99.90;;;;;;5062532;28;20229;-60
2021/11/11 05:00:20;;;;;;;65.07;27.30;;;9.10;99.90;;;;;;5052037;28;20542;-59
2021/11/11 05:05:29;;;;;;;75.77;28.77;;;9.00;99.90;;;;;;5058100;28;20241;-60
2021/11/11 05:07:56;;;;;;;68.00;29.23;;;9.10;99.90;;;;;;5055173;28;20210;-60
2021/11/11 05:10:25;;;;;;;79.77;30.63;;;9.10;99.90;;;;;;5056087;28;20233;-60
2021/11/11 05:12:52;;;;;;;72.80;28.43;;;9.10;99.90;;;;;;5060369;28;20198;-60
2021/11/11 05:15:19;;;;;;;72.20;30.47;;;9.10;99.90;;;;;;5058700;28;20295;-60
2021/11/11 05:17:47;;;;;;;72.03;28.13;;;9.10;99.90;;;;;;5049454;28;20214;-60
2021/11/11 05:20:17;;;;;;;77.63;29.33;;;9.00;99.90;;;;;;5058616;28;20456;-60
2021/11/11 05:22:45;;;;;;;77.27;30.27;;;9.10;99.90;;;;;;5055684;28;20302;-60
2021/11/11 05:25:13;;;;;;;73.87;28.83;;;9.10;99.90;;;;;;5058329;28;20218;-60
2021/11/11 05:27:43;;;;;;;74.13;28.97;;;9.10;99.90;;;;;;5057232;28;20202;-60
2021/11/11 05:30:13;;;;;;;73.80;31.50;;;9.00;99.90;;;;;;5057561;28;20199;-60
2021/11/11 05:32:40;;;;;;;83.40;32.33;;;9.10;99.90;;;;;;5048353;28;20237;-60
2021/11/11 05:35:09;;;;;;;82.33;31.07;;;9.10;99.90;;;;;;5058212;28;20214;-60
2021/11/11 05:37:37;;;;;;;78.60;31.47;;;9.10;99.90;;;;;;5061511;28;20207;-60
2021/11/11 05:40:06;;;;;;;72.33;32.00;;;9.10;99.90;;;;;;5058155;28;20202;-60
2021/11/11 05:42:32;;;;;;;67.40;29.70;;;9.10;99.90;;;;;;5056992;28;20206;-60
2021/11/11 05:45:01;;;;;;;79.23;31.60;;;9.00;99.90;;;;;;5056930;28;20201;-60
2021/11/11 05:47:28;;;;;;;68.97;32.40;;;9.00;99.90;;;;;;5048563;28;20210;-60
2021/11/11 05:49:55;;;;;;;60.87;30.67;;;9.10;99.90;;;;;;5055368;28;20593;-60
2021/11/11 05:52:22;;;;;;;61.00;30.27;;;9.10;99.90;;;;;;5059059;28;20218;-60
2021/11/11 05:54:53;;;;;;;65.23;28.73;;;9.10;99.90;;;;;;5060537;28;20343;-60
2021/11/11 05:57:20;;;;;;;67.07;31.03;;;9.10;99.90;;;;;;5054641;28;20395;-60
2021/11/11 05:59:47;;;;;;;63.63;30.43;;;9.00;99.90;;;;;;5057423;28;20560;-60
2021/11/11 06:02:16;;;;;;;65.20;28.87;;;9.00;99.90;;;;;;5053392;28;20187;-60
2021/11/11 06:04:45;;;;;;;62.50;31.47;;;9.00;99.90;;;;;;5045763;28;20206;-59
2021/11/11 06:07:14;;;;;;;71.07;31.93;;;9.10;99.90;;;;;;5050368;28;20211;-60
2021/11/11 06:09:41;;;;;;;66.40;31.17;;;9.00;99.90;;;;;;5060563;28;20292;-60
2021/11/11 06:12:08;;;;;;;55.93;28.97;;;9.10;99.90;;;;;;5051293;28;20221;-60
2021/11/11 06:14:35;;;;;;;57.77;27.87;;;9.10;99.90;;;;;;5047975;28;20217;-60
2021/11/11 06:17:06;;;;;;;51.80;27.23;;;9.10;99.90;;;;;;5058722;28;20249;-60
2021/11/11 06:19:34;;;;;;;53.43;28.53;;;9.10;99.90;;;;;;5049093;28;20702;-60
2021/11/11 06:22:01;;;;;;;53.80;27.87;;;9.10;99.90;;;;;;5046268;28;20191;-60
2021/11/11 06:24:29;;;;;;;49.20;28.47;;;9.10;99.90;;;;;;5056120;28;20557;-60
2021/11/11 06:26:57;;;;;;;52.63;26.50;;;9.10;99.90;;;;;;5050843;28;20218;-60
2021/11/11 06:29:24;;;;;;;48.40;25.57;;;9.10;99.90;;;;;;5066178;28;20241;-60
2021/11/11 06:31:51;;;;;;;57.97;27.83;;;9.10;99.90;;;;;;5051747;28;20299;-60
2021/11/11 06:34:25;;;;;;;72.07;29.83;;;9.10;99.90;;;;;;5067136;28;20202;-60
2021/11/11 06:36:52;;;;;;;57.47;28.67;;;9.10;99.90;;;;;;5041740;28;20404;-60
2021/11/11 06:39:19;;;;;;;63.77;31.13;;;9.10;99.90;;;;;;5059521;28;20203;-60
2021/11/11 06:41:46;;;;;;;57.87;28.60;;;9.10;99.90;;;;;;5065884;28;20195;-60
2021/11/11 06:44:18;;;;;;;63.23;30.03;;;9.20;99.90;;;;;;5060046;28;20273;-60
2021/11/11 06:46:46;;;;;;;53.30;27.30;;;9.20;99.90;;;;;;5060434;28;20230;-59
2021/11/11 06:49:12;;;;;;;66.57;28.77;;;9.20;99.90;;;;;;5066980;28;20851;-60
2021/11/11 06:51:39;;;;;;;70.00;29.07;;;9.20;99.90;;;;;;5052685;28;20245;-60
2021/11/11 06:54:08;;;;;;;49.57;25.30;;;9.20;99.90;;;;;;5055316;28;20204;-60
2021/11/11 06:56:36;;;;;;;68.20;30.43;;;9.20;99.90;;;;;;5065097;28;20245;-60
2021/11/11 06:59:03;;;;;;;73.67;33.70;;;9.20;99.90;;;;;;5054589;28;20266;-60
2021/11/11 07:01:30;;;;;;;74.80;32.80;;;9.20;99.90;;;;;;5061112;28;20294;-60
2021/11/11 07:03:57;;;;;;;65.93;29.90;;;9.30;99.90;;;;;;5060218;28;20198;-60
2021/11/11 07:06:24;;;;;;;63.73;30.47;;;9.20;99.90;;;;;;5051883;28;20268;-60
2021/11/11 07:08:50;;;;;;;56.03;28.60;;;9.20;99.90;;;;;;5052437;28;20199;-60
2021/11/11 07:11:18;;;;;;;55.80;27.67;;;9.30;99.90;;;;;;5065234;28;20233;-60
2021/11/11 07:13:45;;;;;;;69.13;30.33;;;9.30;99.90;;;;;;5062869;28;20811;-59
2021/11/11 07:16:12;;;;;;;80.20;32.30;;;9.30;99.90;;;;;;5055685;28;20232;-60
2021/11/11 07:18:38;;;;;;;68.07;31.70;;;9.30;99.90;;;;;;5075400;28;20642;-60
2021/11/11 07:21:05;;;;;;;55.10;29.07;;;9.30;99.90;;;;;;5048680;28;20199;-59
2021/11/11 07:23:31;;;;;;;61.93;29.47;;;9.30;99.90;;;;;;5066465;28;21046;-59
2021/11/11 07:25:58;;;;;;;64.97;31.13;;;9.30;99.90;;;;;;5056081;28;20837;-59
2021/11/11 07:28:26;;;;;;;70.40;32.40;;;9.40;99.90;;;;;;5063135;28;20198;-59
2021/11/11 07:30:53;;;;;;;68.97;31.20;;;9.40;99.90;;;;;;5055865;28;20236;-59
2021/11/11 07:33:20;;;;;;;50.17;24.63;;;9.40;99.90;;;;;;5057667;28;20202;-59
2021/11/11 07:35:47;;;;;;;47.07;25.33;;;9.40;99.90;;;;;;5055997;28;20214;-59
2021/11/11 07:38:16;;;;;;;48.97;26.73;;;9.30;99.90;;;;;;5057335;28;20198;-59
2021/11/11 07:40:43;;;;;;;48.07;25.17;;;9.30;99.90;;;;;;5065448;28;20205;-59
2021/11/11 07:43:10;;;;;;;49.60;26.07;;;9.40;99.90;;;;;;5064337;28;20197;-59
2021/11/11 07:45:40;;;;;;;55.77;27.90;;;9.40;99.90;;;;;;5058970;28;20222;-59
2021/11/11 07:48:07;;;;;;;53.67;26.57;;;9.40;99.90;;;;;;5064552;28;20350;-58
2021/11/11 07:50:37;;;;;;;55.57;27.43;;;9.40;99.90;;;;;;5058725;28;20195;-59
2021/11/11 07:53:09;;;;;;;57.77;26.43;;;9.40;99.90;;;;;;5048512;28;20215;-59
2021/11/11 07:55:36;;;;;;;57.10;28.17;;;9.50;99.90;;;;;;5064168;28;20222;-58
2021/11/11 07:58:03;;;;;;;63.13;28.43;;;9.40;99.90;;;;;;5052637;28;20681;-58
2021/11/11 08:00:29;;;;;;;63.70;29.37;;;9.50;99.90;;;;;;5057540;28;20219;-59
2021/11/11 08:02:58;;;;;;;67.87;28.00;;;9.50;99.90;;;;;;5058797;28;20256;-59
2021/11/11 08:05:25;;;;;;;68.23;27.83;;;9.50;99.90;;;;;;5059206;28;20233;-59
2021/11/11 08:07:52;;;;;;;58.47;27.50;;;9.50;99.90;;;;;;5048889;28;21359;-58
2021/11/11 08:10:21;;;;;;;75.10;31.30;;;9.50;99.90;;;;;;5063569;28;20279;-59
2021/11/11 08:12:49;;;;;;;87.43;32.27;;;9.50;99.90;;;;;;5062767;28;20470;-57
2021/11/11 08:15:16;;;;;;;67.27;30.33;;;9.50;99.90;;;;;;5064578;28;20249;-58
2021/11/11 08:17:44;;;;;;;83.43;32.43;;;9.60;99.90;;;;;;5054514;28;20199;-59
2021/11/11 08:20:14;;;;;;;82.87;34.27;;;9.60;99.90;;;;;;5059138;28;20221;-58
2021/11/11 08:22:41;;;;;;;74.20;30.30;;;9.60;99.90;;;;;;5053311;28;20217;-59
2021/11/11 08:25:10;;;;;;;65.67;30.17;;;9.70;99.90;;;;;;5065168;28;20230;-59
2021/11/11 08:27:38;;;;;;;76.73;32.57;;;9.60;99.90;;;;;;5062256;28;20193;-60
2021/11/11 08:30:06;;;;;;;69.40;30.87;;;9.70;99.90;;;;;;5067569;28;20197;-59
2021/11/11 08:32:33;;;;;;;64.73;30.67;;;9.70;99.90;;;;;;5056693;28;20227;-59
2021/11/11 08:35:00;;;;;;;72.73;30.97;;;9.70;99.90;;;;;;5063032;28;20273;-59
2021/11/11 08:37:28;;;;;;;69.43;32.13;;;9.60;99.90;;;;;;5057451;28;20206;-58
2021/11/11 08:39:55;;;;;;;77.73;33.07;;;9.70;99.90;;;;;;5048387;28;20954;-59
2021/11/11 08:42:22;;;;;;;63.87;30.40;;;9.70;99.90;;;;;;5064812;28;20273;-59
2021/11/11 08:44:49;;;;;;;67.97;31.97;;;9.70;99.90;;;;;;5057248;28;20186;-59
2021/11/11 08:47:19;;;;;;;69.33;31.47;;;9.70;99.90;;;;;;5062380;28;20305;-60
2021/11/11 08:49:51;;;;;;;66.43;30.47;;;9.70;99.90;;;;;;5057045;28;20194;-59
2021/11/11 08:52:17;;;;;;;74.37;30.73;;;9.70;99.90;;;;;;5067357;28;20311;-58
2021/11/11 08:54:45;;;;;;;60.93;28.47;;;9.80;99.90;;;;;;5054184;28;20310;-59
2021/11/11 08:57:13;;;;;;;65.00;30.13;;;9.80;99.90;;;;;;5063827;28;20191;-59
2021/11/11 08:59:40;;;;;;;65.13;30.73;;;9.70;99.90;;;;;;5062400;28;20824;-58
2021/11/11 09:02:07;;;;;;;80.63;33.00;;;9.70;99.90;;;;;;5063640;28;20194;-59
2021/11/11 09:04:33;;;;;;;84.07;32.83;;;9.80;99.90;;;;;;5050255;28;20669;-58
2021/11/11 09:07:00;;;;;;;73.37;33.07;;;9.80;99.90;;;;;;5052168;28;20226;-58
2021/11/11 09:09:28;;;;;;;81.60;33.90;;;9.80;99.90;;;;;;5060165;28;20633;-59
2021/11/11 09:11:56;;;;;;;82.50;33.60;;;9.80;99.90;;;;;;5045405;28;20260;-58
2021/11/11 09:14:23;;;;;;;72.50;32.07;;;9.90;99.90;;;;;;5054857;28;20210;-58
2021/11/11 09:16:50;;;;;;;112.73;38.50;;;9.90;99.90;;;;;;5055448;28;20214;-59
2021/11/11 09:19:17;;;;;;;75.13;34.80;;;9.90;99.90;;;;;;5052992;28;20280;-58
2021/11/11 09:21:44;;;;;;;79.97;33.80;;;9.90;99.90;;;;;;5056326;28;20575;-58
2021/11/11 09:24:11;;;;;;;74.70;34.93;;;9.90;99.90;;;;;;5056351;28;20199;-57
2021/11/11 09:26:38;;;;;;;79.73;35.83;;;9.90;99.90;;;;;;5049082;28;20226;-58
2021/11/11 09:29:07;;;;;;;68.57;32.37;;;9.90;99.90;;;;;;5058046;28;20190;-58
2021/11/11 09:31:36;;;;;;;78.93;35.00;;;9.90;99.90;;;;;;5060188;28;20309;-58
2021/11/11 09:34:04;;;;;;;78.17;32.63;;;10.00;99.90;;;;;;5049994;28;20195;-58
2021/11/11 09:36:31;;;;;;;75.67;33.80;;;9.90;99.90;;;;;;5061676;28;20317;-58
2021/11/11 09:38:58;;;;;;;80.63;35.23;;;9.90;99.90;;;;;;5054361;28;20191;-59
2021/11/11 09:41:25;;;;;;;64.57;31.83;;;9.90;99.90;;;;;;5049266;28;20195;-58
2021/11/11 09:43:52;;;;;;;79.97;36.43;;;10.00;99.90;;;;;;5058498;28;20217;-58
2021/11/11 09:46:22;;;;;;;82.47;35.53;;;10.00;99.90;;;;;;5060214;28;20230;-59
2021/11/11 09:48:49;;;;;;;79.63;36.50;;;10.00;99.90;;;;;;5057423;28;20547;-58
2021/11/11 09:51:19;;;;;;;80.83;37.33;;;10.00;99.90;;;;;;5058889;28;20894;-58
2021/11/11 09:53:56;;;;;;;81.37;35.67;;;10.00;99.90;;;;;;5055368;28;20671;-58
2021/11/11 09:59:07;;;;;;;93.27;38.23;;;10.10;99.90;;;;;;5045588;28;20206;-58
2021/11/11 10:01:35;;;;;;;69.33;34.60;;;10.00;99.90;;;;;;5052732;28;20202;-59
2021/11/11 10:04:02;;;;;;;76.83;33.27;;;10.00;99.90;;;;;;5054283;28;20187;-58
2021/11/11 10:06:30;;;;;;;80.73;35.80;;;10.00;99.90;;;;;;5056220;28;20222;-59
2021/11/11 10:08:58;;;;;;;75.70;36.93;;;10.00;99.90;;;;;;5052647;28;20202;-59
2021/11/11 10:11:32;;;;;;;73.10;36.10;;;10.00;99.90;;;;;;5061551;28;20252;-59
2021/11/11 10:14:02;;;;;;;69.00;33.47;;;10.10;99.90;;;;;;5045245;28;20226;-58
2021/11/11 10:16:29;;;;;;;68.07;33.40;;;10.10;99.90;;;;;;5059790;28;20223;-58
2021/11/11 10:18:58;;;;;;;79.93;36.00;;;10.00;99.90;;;;;;5046349;28;20989;-59
2021/11/11 10:21:41;;;;;;;68.93;34.07;;;10.00;99.90;;;;;;5058895;28;20570;-59
2021/11/11 10:24:30;;;;;;;79.07;35.47;;;10.10;99.90;;;;;;5053833;28;20279;-59
2021/11/11 10:27:01;;;;;;;62.90;33.43;;;10.10;99.90;;;;;;5059836;28;20505;-58
2021/11/11 10:29:36;;;;;;;71.67;35.50;;;10.10;99.90;;;;;;5052383;28;20612;-58
2021/11/11 10:32:09;;;;;;;74.17;35.53;;;10.10;99.90;;;;;;5063519;28;20241;-58
2021/11/11 10:34:46;;;;;;;72.07;34.00;;;10.10;99.90;;;;;;5062809;28;20209;-58
2021/11/11 10:37:12;;;;;;;71.33;33.17;;;10.10;99.90;;;;;;5056518;28;20202;-59
2021/11/11 10:39:41;;;;;;;67.03;31.60;;;10.10;99.90;;;;;;5057099;28;20214;-58
2021/11/11 10:42:16;;;;;;;73.07;34.43;;;10.20;99.90;;;;;;5060948;28;20252;-57
2021/11/11 10:44:44;;;;;;;63.53;31.37;;;10.20;99.90;;;;;;5050997;28;20198;-59
2021/11/11 10:47:12;;;;;;;68.70;34.83;;;10.20;99.90;;;;;;5064195;28;20218;-59
2021/11/11 10:49:43;;;;;;;60.40;31.70;;;10.20;99.90;;;;;;5062828;28;20199;-58
2021/11/11 10:52:38;;;;;;;69.87;33.17;;;10.20;99.90;;;;;;5061230;28;20761;-58
2021/11/11 10:55:29;;;;;;;60.27;29.97;;;10.20;99.90;;;;;;5058878;28;21830;-58
2021/11/11 10:58:03;;;;;;;61.60;32.77;;;10.20;99.90;;;;;;5045397;28;20203;-58
2021/11/11 11:00:50;;;;;;;53.37;29.03;;;10.20;99.90;;;;;;5053779;28;20567;-58
2021/11/11 11:03:18;;;;;;;58.97;29.50;;;10.20;99.90;;;;;;5057902;28;20643;-58
2021/11/11 11:05:53;;;;;;;55.50;31.63;;;10.20;99.90;;;;;;5060696;28;20307;-58
2021/11/11 11:08:22;;;;;;;56.70;29.60;;;10.20;99.90;;;;;;5058793;28;20202;-59
2021/11/11 11:10:51;;;;;;;56.50;30.43;;;10.20;99.90;;;;;;5056976;28;20214;-58
2021/11/11 11:13:21;;;;;;;53.07;31.03;;;10.20;99.90;;;;;;5055277;28;20714;-58
2021/11/11 11:15:53;;;;;;;51.23;30.00;;;10.20;99.90;;;;;;5047859;28;20236;-58
2021/11/11 11:18:23;;;;;;;59.57;30.83;;;10.20;99.90;;;;;;5050715;28;20238;-58
2021/11/11 11:20:56;;;;;;;65.23;32.40;;;10.20;99.90;;;;;;5057497;28;20270;-58
2021/11/11 11:23:33;;;;;;;66.90;32.27;;;10.20;99.90;;;;;;5057651;28;20202;-59
2021/11/11 11:26:13;;;;;;;57.50;30.60;;;10.30;99.90;;;;;;5059099;28;20232;-59
2021/11/11 11:28:48;;;;;;;63.13;30.63;;;10.30;99.90;;;;;;5055867;28;20841;-58
2021/11/11 11:31:27;;;;;;;62.37;29.67;;;10.30;99.90;;;;;;5061025;28;20194;-58
2021/11/11 11:33:54;;;;;;;54.17;29.83;;;10.30;99.90;;;;;;5046998;28;20917;-57
2021/11/11 11:36:36;;;;;;;57.23;30.70;;;10.30;99.90;;;;;;5064463;28;20222;-57
2021/11/11 11:39:06;;;;;;;56.23;30.07;;;10.20;99.90;;;;;;5060178;28;20606;-59
2021/11/11 11:41:35;;;;;;;51.87;28.37;;;10.20;99.90;;;;;;5053020;28;20234;-59
2021/11/11 11:44:23;;;;;;;51.77;29.03;;;10.20;99.90;;;;;;5063035;28;20197;-59
2021/11/11 11:46:57;;;;;;;52.73;29.13;;;10.20;99.90;;;;;;5056691;28;20207;-59
2021/11/11 11:49:24;;;;;;;56.20;27.57;;;10.30;99.90;;;;;;5048848;28;20757;-58
2021/11/11 11:51:52;;;;;;;55.27;28.63;;;10.30;99.90;;;;;;5060832;28;20910;-58
2021/11/11 11:54:27;;;;;;;55.63;31.93;;;10.20;99.90;;;;;;5060180;28;20222;-58
2021/11/11 11:56:58;;;;;;;58.80;30.90;;;10.20;99.90;;;;;;5057494;28;20472;-58
2021/11/11 11:59:29;;;;;;;55.17;31.03;;;10.30;99.90;;;;;;5059224;28;20624;-58
2021/11/11 12:05:04;;;;;;;56.57;31.13;;;10.30;99.90;;;;;;5018867;28;20293;-57
2021/11/11 12:10:30;;;;;;;49.23;29.63;;;10.30;99.90;;;;;;5059979;28;20225;-58
2021/11/11 12:13:20;;;;;;;54.83;29.97;;;10.30;99.90;;;;;;5052070;28;20229;-58
2021/11/11 12:16:00;;;;;;;47.67;28.87;;;10.30;99.90;;;;;;5057191;28;20198;-57
2021/11/11 12:30:08;;;;;;;40.33;25.53;;;10.30;99.90;;;;;;5055583;28;20899;-59
2021/11/11 12:38:45;;;;;;;37.83;24.20;;;10.20;99.90;;;;;;5058730;28;20277;-59
2021/11/11 12:41:15;;;;;;;33.27;23.50;;;10.20;99.90;;;;;;5058626;28;20202;-59
2021/11/11 12:43:43;;;;;;;36.67;23.73;;;10.30;99.90;;;;;;5052264;28;20187;-60
2021/11/11 12:46:37;;;;;;;42.47;24.67;;;10.30;99.90;;;;;;5059077;28;20218;-60
2021/11/11 12:49:26;;;;;;;35.93;22.80;;;10.30;99.90;;;;;;5052480;28;20699;-58
2021/11/11 12:52:23;;;;;;;43.47;25.17;;;10.20;99.90;;;;;;5044705;28;20477;-60
2021/11/11 12:54:51;;;;;;;42.40;24.97;;;10.30;99.90;;;;;;5054721;28;20307;-60
2021/11/11 12:57:21;;;;;;;37.77;25.20;;;10.20;99.90;;;;;;5058277;28;20207;-57
2021/11/11 12:59:48;;;;;;;38.73;25.17;;;10.30;99.90;;;;;;5054834;28;20289;-57
2021/11/11 13:02:15;;;;;;;33.10;22.37;;;10.30;99.90;;;;;;5062777;28;20194;-57
2021/11/11 13:04:49;;;;;;;35.10;22.77;;;10.30;99.90;;;;;;5059671;28;20198;-58
2021/11/11 13:07:29;;;;;;;38.53;23.77;;;10.30;99.90;;;;;;5050102;28;20207;-58
2021/11/11 13:10:06;;;;;;;34.37;22.50;;;10.30;99.90;;;;;;5059677;28;20257;-58
2021/11/11 13:12:36;;;;;;;26.20;20.83;;;10.30;99.90;;;;;;5055377;28;20215;-58
2021/11/11 13:15:06;;;;;;;32.57;21.77;;;10.30;99.90;;;;;;5058520;28;20217;-57
2021/11/11 13:17:45;;;;;;;35.93;22.57;;;10.30;99.90;;;;;;5054187;28;20257;-58
2021/11/11 13:20:31;;;;;;;32.57;21.83;;;10.30;99.90;;;;;;5063578;28;20221;-58
2021/11/11 13:23:04;;;;;;;32.07;21.07;;;10.30;99.90;;;;;;5048173;28;20273;-58
2021/11/11 13:28:49;;;;;;;29.67;19.87;;;10.40;99.90;;;;;;5053771;28;20576;-58
2021/11/11 13:59:53;;;;;;;25.67;18.10;;;10.40;99.90;;;;;;5047937;28;20195;-58